Time;durP1;ratioP1;P1;durP2;ratioP2;P2;SDS_P1;SDS_P2;PMS_P1;PMS_P2;Temp;Humidity;BMP_temperature;BMP_pressure;BME280_temperature;BME280_humidity;BME280_pressure;Samples;Min_cycle;Max_cycle;Signal;HPM_P1;HPM_P2
2020/12/10 00:02:13;;;;;;;66.28;29.63;;;;;;;-1.52;86.37;97533.17;1784514;80;21264;-76
2020/12/10 00:04:39;;;;;;;73.17;32.55;;;;;;;-1.61;86.15;97529.14;1784529;79;21469;-76
2020/12/10 00:07:06;;;;;;;73.33;33.65;;;;;;;-1.60;86.11;97532.61;1753966;80;21245;-88
2020/12/10 00:09:33;;;;;;;72.80;34.73;;;;;;;-1.46;86.35;97532.29;1784461;79;21523;-88
2020/12/10 00:12:01;;;;;;;73.22;31.37;;;;;;;-1.37;86.11;97524.05;1784596;80;21618;-76
2020/12/10 00:14:27;;;;;;;75.37;31.05;;;;;;;-1.35;85.82;97518.84;1784672;79;21897;-76
2020/12/10 00:16:53;;;;;;;68.42;30.00;;;;;;;-1.34;85.64;97516.48;1784669;79;21050;-76
2020/12/10 00:19:19;;;;;;;70.57;29.45;;;;;;;-1.38;85.45;97516.59;1784604;79;21690;-76
2020/12/10 00:21:45;;;;;;;67.82;26.97;;;;;;;-1.33;85.61;97515.45;1784642;80;21007;-76
2020/12/10 00:24:11;;;;;;;70.78;28.15;;;;;;;-1.38;85.39;97515.27;1784543;79;20916;-76
2020/12/10 00:26:37;;;;;;;68.25;29.63;;;;;;;-1.55;85.28;97516.30;1784684;79;21432;-76
2020/12/10 00:29:03;;;;;;;69.07;29.07;;;;;;;-1.64;85.55;97520.25;1784435;80;20900;-76
2020/12/10 00:31:28;;;;;;;66.97;28.92;;;;;;;-1.65;85.72;97513.31;1784577;79;20904;-76
2020/12/10 00:33:54;;;;;;;68.40;28.15;;;;;;;-1.67;85.73;97507.92;1784532;80;20944;-77
2020/12/10 00:36:20;;;;;;;66.22;29.98;;;;;;;-1.68;85.61;97509.77;1784561;79;20908;-77
2020/12/10 00:38:46;;;;;;;63.10;28.32;;;;;;;-1.59;85.84;97507.66;1784608;80;21266;-89
2020/12/10 00:41:14;;;;;;;61.28;28.42;;;;;;;-1.67;85.39;97506.59;1784558;79;21126;-88
2020/12/10 00:43:40;;;;;;;61.80;25.82;;;;;;;-1.58;85.38;97502.13;1784463;80;21064;-89
2020/12/10 00:46:06;;;;;;;71.55;30.82;;;;;;;-1.51;85.31;97503.42;1784588;79;21610;-88
2020/12/10 00:48:32;;;;;;;59.48;25.05;;;;;;;-1.50;85.45;97502.39;1784559;80;20947;-76
2020/12/10 00:51:01;;;;;;;70.70;29.50;;;;;;;-1.45;85.37;97494.59;1784531;79;21340;-76
2020/12/10 00:53:30;;;;;;;66.22;29.23;;;;;;;-1.43;85.44;97493.34;1784562;80;21479;-76
2020/12/10 00:55:56;;;;;;;79.82;31.95;;;;;;;-1.45;84.87;97486.11;1754162;80;21130;-87
2020/12/10 00:58:26;;;;;;;67.12;26.97;;;;;;;-1.54;85.08;97487.89;1784470;79;21135;-87
2020/12/10 01:00:52;;;;;;;66.28;29.18;;;;;;;-1.81;85.35;97489.39;1784496;79;21149;-76
2020/12/10 01:03:18;;;;;;;69.35;27.62;;;;;;;-1.95;85.73;97495.83;1784618;80;21359;-75
2020/12/10 01:05:44;;;;;;;62.78;24.70;;;;;;;-1.82;85.60;97501.56;1784552;79;21054;-75
2020/12/10 01:08:10;;;;;;;63.65;27.82;;;;;;;-1.87;85.96;97490.78;1784648;80;20936;-87
2020/12/10 01:10:36;;;;;;;61.77;26.00;;;;;;;-1.81;85.52;97488.06;1784658;79;20928;-75
2020/12/10 01:13:01;;;;;;;64.15;26.73;;;;;;;-1.89;85.99;97497.61;1784579;80;20888;-87
2020/12/10 01:15:29;;;;;;;69.95;29.00;;;;;;;-1.92;85.85;97483.44;1784814;79;21190;-88
2020/12/10 01:17:55;;;;;;;54.40;26.42;;;;;;;-1.95;86.24;97480.41;1783738;80;21102;-88
2020/12/10 01:20:24;;;;;;;59.18;25.77;;;;;;;-1.99;86.09;97480.00;1784736;79;20872;-76
2020/12/10 01:22:50;;;;;;;71.33;27.10;;;;;;;-2.08;86.50;97462.69;1784845;80;26825;-75
2020/12/10 01:25:16;;;;;;;58.75;29.42;;;;;;;-2.16;86.66;97458.95;1754118;80;21027;-87
2020/12/10 01:27:42;;;;;;;73.00;26.95;;;;;;;-2.02;86.52;97462.66;1754249;80;21635;-76
2020/12/10 01:30:08;;;;;;;60.40;24.98;;;;;;;-2.00;86.62;97465.09;1784772;79;21002;-76
2020/12/10 01:32:34;;;;;;;59.38;25.97;;;;;;;-2.08;86.29;97462.69;1784804;79;21151;-76
2020/12/10 01:35:00;;;;;;;62.70;28.92;;;;;;;-2.23;86.61;97455.00;1784735;79;21022;-88
2020/12/10 01:37:25;;;;;;;61.25;26.77;;;;;;;-2.12;86.79;97450.88;1754163;80;21315;-76
2020/12/10 01:39:52;;;;;;;55.10;24.50;;;;;;;-2.15;86.53;97461.91;1784760;79;21183;-76
2020/12/10 01:42:18;;;;;;;60.30;25.68;;;;;;;-2.16;86.36;97459.77;1754387;80;21793;-89
2020/12/10 01:47:46;;;;;;;62.73;26.50;;;;;;;-2.12;86.46;97458.84;1861339;76;22764;-86
2020/12/10 01:50:12;;;;;;;53.90;22.95;;;;;;;-2.19;86.70;97471.34;1843243;77;21514;-87
2020/12/10 01:52:38;;;;;;;62.50;24.52;;;;;;;-2.18;86.55;97455.70;1832328;78;21142;-87
2020/12/10 01:55:04;;;;;;;62.98;25.02;;;;;;;-2.17;86.40;97454.67;1832230;76;21643;-76
2020/12/10 01:57:30;;;;;;;61.15;25.88;;;;;;;-2.13;86.36;97462.02;1799761;77;20959;-75
2020/12/10 01:59:56;;;;;;;58.92;21.90;;;;;;;-2.18;86.17;97454.38;1832269;78;21049;-85
2020/12/10 02:02:22;;;;;;;51.23;23.98;;;;;;;-2.38;86.45;97446.52;1832190;76;20872;-75
2020/12/10 02:04:48;;;;;;;59.60;25.62;;;;;;;-2.35;86.77;97442.11;1832244;76;21153;-75
2020/12/10 02:07:14;;;;;;;57.38;24.72;;;;;;;-2.34;86.37;97440.56;1832109;76;21041;-75
2020/12/10 02:09:39;;;;;;;54.45;23.62;;;;;;;-2.43;86.82;97442.34;1832127;77;20947;-86
2020/12/10 02:12:05;;;;;;;56.90;25.35;;;;;;;-2.38;86.76;97435.39;1832092;78;21001;-75
2020/12/10 02:14:36;;;;;;;61.28;24.90;;;;;;;-2.34;86.60;97437.09;1832255;78;20927;-86
2020/12/10 02:17:06;;;;;;;56.92;24.27;;;;;;;-2.38;86.77;97434.06;1832095;78;21174;-76
2020/12/10 02:19:33;;;;;;;59.33;22.93;;;;;;;-2.48;86.85;97434.19;1832137;78;21050;-87
2020/12/10 02:21:59;;;;;;;57.17;19.37;;;;;;;-2.39;86.69;97439.59;1832192;76;21038;-88
2020/12/10 02:24:25;;;;;;;55.83;26.48;;;;;;;-2.34;86.18;97449.04;1832032;78;21093;-88
2020/12/10 02:26:51;;;;;;;62.90;27.55;;;;;;;-2.43;86.59;97441.83;1832164;77;20988;-88
2020/12/10 02:29:18;;;;;;;45.50;23.62;;;;;;;-2.41;86.63;97434.47;1799778;78;21276;-75
2020/12/10 02:31:44;;;;;;;53.65;23.62;;;;;;;-2.46;86.68;97425.53;1799540;78;21113;-87
2020/12/10 02:34:10;;;;;;;63.10;24.98;;;;;;;-2.39;86.81;97409.08;1832114;76;20900;-88
2020/12/10 02:36:36;;;;;;;56.60;22.90;;;;;;;-2.45;86.77;97412.05;1832047;78;20915;-75
2020/12/10 02:39:04;;;;;;;56.77;25.10;;;;;;;-2.43;86.69;97409.18;1832126;78;21398;-75
2020/12/10 02:41:30;;;;;;;48.28;23.80;;;;;;;-2.32;86.73;97417.27;1832038;76;21185;-76
2020/12/10 02:43:56;;;;;;;58.10;25.57;;;;;;;-2.18;86.63;97409.25;1832107;76;20876;-76
2020/12/10 02:46:22;;;;;;;55.60;22.85;;;;;;;-2.14;86.31;97402.47;1797732;78;21046;-89
2020/12/10 02:48:48;;;;;;;55.52;25.62;;;;;;;-2.23;85.72;97401.91;1791712;78;20912;-75
2020/12/10 02:51:14;;;;;;;56.95;23.47;;;;;;;-2.15;85.61;97410.14;1825711;78;21569;-86
2020/12/10 02:53:40;;;;;;;56.60;23.80;;;;;;;-2.38;85.98;97401.41;1791737;80;21170;-88
2020/12/10 02:56:11;;;;;;;58.68;21.75;;;;;;;-2.29;85.90;97390.33;1791096;78;21046;-87
2020/12/10 02:58:38;;;;;;;58.65;23.95;;;;;;;-2.16;85.79;97395.24;1789927;80;21162;-76
2020/12/10 03:01:05;;;;;;;54.27;23.52;;;;;;;-2.17;85.97;97391.78;1825229;78;21118;-76
2020/12/10 03:03:31;;;;;;;58.60;27.22;;;;;;;-2.19;85.47;97393.03;1791087;80;21107;-86
2020/12/10 03:05:57;;;;;;;56.37;24.72;;;;;;;-2.08;85.83;97393.14;1825212;78;22154;-75
2020/12/10 03:08:23;;;;;;;65.90;25.48;;;;;;;-2.06;85.19;97384.45;1791115;80;21178;-75
2020/12/10 03:10:50;;;;;;;53.00;22.22;;;;;;;-2.14;85.16;97375.41;1765453;78;21593;-87
2020/12/10 03:13:16;;;;;;;47.62;20.77;;;;;;;-2.13;85.28;97384.22;1791107;78;21558;-75
2020/12/10 03:15:42;;;;;;;53.78;24.67;;;;;;;-2.19;85.39;97385.06;1825094;76;20904;-75
2020/12/10 03:18:08;;;;;;;56.42;25.32;;;;;;;-2.13;85.38;97374.92;1791157;80;21787;-87
2020/12/10 03:20:35;;;;;;;58.02;23.98;;;;;;;-2.11;85.30;97363.05;1790988;78;21034;-78
2020/12/10 03:23:01;;;;;;;61.08;26.27;;;;;;;-2.27;85.50;97378.16;1757732;80;21051;-87
2020/12/10 03:25:28;;;;;;;49.38;23.55;;;;;;;-2.21;85.48;97369.88;1790961;78;20963;-75
2020/12/10 03:27:54;;;;;;;60.48;23.83;;;;;;;-2.29;85.55;97367.77;1845532;77;21162;-75
2020/12/10 03:30:20;;;;;;;40.38;17.87;;;;;;;-2.28;85.43;97368.58;1846136;77;21895;-76
2020/12/10 03:32:46;;;;;;;53.70;21.97;;;;;;;-2.13;85.16;97366.96;1846062;77;21047;-76
2020/12/10 03:35:12;;;;;;;51.05;22.75;;;;;;;-2.36;85.39;97370.97;1846073;77;21127;-87
2020/12/10 03:37:38;;;;;;;54.27;23.25;;;;;;;-2.41;85.73;97360.17;1846023;77;20949;-88
2020/12/10 03:40:07;;;;;;;55.65;25.72;;;;;;;-2.47;86.06;97367.67;1846225;76;20944;-88
2020/12/10 03:42:32;;;;;;;52.17;24.18;;;;;;;-2.49;86.22;97364.91;1845870;76;21429;-88
2020/12/10 03:44:58;;;;;;;47.60;18.67;;;;;;;-2.37;85.97;97360.58;1846022;77;20940;-88
2020/12/10 03:47:24;;;;;;;48.08;20.45;;;;;;;-2.37;85.61;97361.38;1846021;76;21082;-88
2020/12/10 03:49:50;;;;;;;46.65;18.75;;;;;;;-2.26;85.61;97358.55;1846080;77;20869;-88
2020/12/10 03:52:17;;;;;;;53.70;22.65;;;;;;;-2.36;85.27;97350.25;1846106;77;21440;-89
2020/12/10 03:54:44;;;;;;;50.00;20.60;;;;;;;-2.47;85.93;97357.58;1846030;77;21303;-76
2020/12/10 03:57:10;;;;;;;50.03;22.00;;;;;;;-2.42;85.97;97361.72;1815205;77;21575;-76
2020/12/10 03:59:38;;;;;;;49.33;22.02;;;;;;;-2.35;85.41;97359.84;1846022;77;21051;-88
2020/12/10 04:02:04;;;;;;;35.83;15.45;;;;;;;-2.40;85.64;97348.52;1846083;77;21210;-75
2020/12/10 04:04:30;;;;;;;50.40;21.33;;;;;;;-2.34;85.52;97357.48;1845965;76;21039;-75
2020/12/10 04:06:56;;;;;;;49.58;20.88;;;;;;;-2.36;85.67;97344.95;1845931;77;21207;-75
2020/12/10 04:09:22;;;;;;;43.02;18.45;;;;;;;-2.27;85.45;97344.47;1845911;77;20945;-75
2020/12/10 04:11:48;;;;;;;54.38;24.07;;;;;;;-2.31;85.24;97347.75;1845975;77;21467;-87
2020/12/10 04:14:14;;;;;;;54.23;21.85;;;;;;;-2.31;85.13;97337.14;1846071;77;20936;-76
2020/12/10 04:16:40;;;;;;;42.20;18.42;;;;;;;-2.33;84.86;97338.69;1815103;77;21091;-76
2020/12/10 04:19:06;;;;;;;54.38;25.40;;;;;;;-2.21;84.90;97333.52;1845851;77;21318;-75
2020/12/10 04:21:32;;;;;;;49.98;23.98;;;;;;;-2.30;85.20;97336.14;1845801;77;21229;-76
2020/12/10 04:23:58;;;;;;;46.50;20.68;;;;;;;-2.35;85.09;97332.78;1845989;76;21224;-75
2020/12/10 04:26:24;;;;;;;47.13;21.77;;;;;;;-2.34;85.13;97327.77;1845865;77;20988;-87
2020/12/10 04:28:50;;;;;;;45.73;20.12;;;;;;;-2.42;85.22;97332.02;1846007;77;21099;-88
2020/12/10 04:31:17;;;;;;;45.15;19.87;;;;;;;-2.57;85.77;97326.98;1845846;76;21160;-76
2020/12/10 04:33:43;;;;;;;38.83;16.25;;;;;;;-2.56;85.54;97327.83;1845931;77;21158;-83
2020/12/10 04:36:09;;;;;;;48.02;23.02;;;;;;;-2.69;86.06;97332.68;1845932;77;21437;-87
2020/12/10 04:38:35;;;;;;;47.55;20.45;;;;;;;-2.66;86.23;97337.55;1846061;77;20967;-76
2020/12/10 04:41:05;;;;;;;44.33;19.32;;;;;;;-2.64;86.09;97330.73;1846074;77;21547;-88
2020/12/10 04:43:33;;;;;;;51.37;23.30;;;;;;;-2.60;85.87;97326.09;1845999;77;21199;-88
2020/12/10 04:46:02;;;;;;;61.88;24.92;;;;;;;-2.59;86.19;97326.91;1845731;77;21138;-76
2020/12/10 04:48:28;;;;;;;;;;;;;;;-2.57;85.74;97328.31;1848404;76;21586;-76
2020/12/10 04:50:59;;;;;;;48.65;22.40;;;;;;;-2.64;86.11;97325.42;1845994;77;20301;-76
2020/12/10 04:53:25;;;;;;;41.30;19.67;;;;;;;-2.63;86.03;97323.88;1846010;77;21107;-76
2020/12/10 04:55:54;;;;;;;45.50;20.10;;;;;;;-2.68;86.15;97325.53;1815591;77;21098;-76
2020/12/10 04:58:20;;;;;;;46.42;20.40;;;;;;;-2.59;85.96;97318.95;1845453;77;26368;-76
2020/12/10 05:00:46;;;;;;;47.85;20.57;;;;;;;-2.45;85.54;97319.18;1845929;76;21023;-88
2020/12/10 05:03:14;;;;;;;55.00;24.25;;;;;;;-2.43;85.70;97312.33;1845866;77;21138;-76
2020/12/10 05:05:40;;;;;;;46.88;23.10;;;;;;;-2.41;85.30;97316.38;1815516;77;21048;-76
2020/12/10 05:08:06;;;;;;;42.05;17.98;;;;;;;-2.38;85.39;97304.55;1845926;76;21355;-88
2020/12/10 05:10:44;;;;;;;45.20;21.15;;;;;;;-2.31;85.13;97303.48;1845844;77;20999;-76
2020/12/10 05:13:12;;;;;;;52.83;22.53;;;;;;;-2.36;84.95;97308.61;1846278;77;21135;-76
2020/12/10 05:15:38;;;;;;;53.95;21.15;;;;;;;-2.38;85.11;97308.53;1845908;77;21124;-88
2020/12/10 05:18:09;;;;;;;40.92;19.50;;;;;;;-2.34;85.33;97300.42;1845971;76;21158;-88
2020/12/10 05:20:45;;;;;;;50.20;26.45;;;;;;;-2.29;85.36;97305.40;1815364;77;21143;-87
2020/12/10 05:23:31;;;;;;;47.38;23.32;;;;;;;-2.18;85.21;97306.54;1845949;77;21019;-76
2020/12/10 05:25:57;;;;;;;53.10;24.25;;;;;;;-2.09;84.85;97311.06;1845950;77;21023;-76
2020/12/10 05:28:24;;;;;;;54.38;24.80;;;;;;;-2.08;84.67;97301.55;1845785;77;21119;-79
2020/12/10 05:31:07;;;;;;;41.55;18.27;;;;;;;-2.12;84.08;97304.35;1846000;77;21114;-88
2020/12/10 05:33:34;;;;;;;42.08;21.70;;;;;;;-2.19;84.15;97300.12;1815562;77;22154;-87
2020/12/10 05:36:11;;;;;;;46.80;21.87;;;;;;;-2.13;84.83;97296.09;1845875;77;21039;-76
2020/12/10 05:39:02;;;;;;;44.40;21.48;;;;;;;-2.14;84.43;97290.46;1845178;77;21151;-87
2020/12/10 05:41:27;;;;;;;47.50;22.15;;;;;;;-2.37;84.93;97301.67;1844851;77;21095;-75
2020/12/10 05:43:53;;;;;;;58.05;23.90;;;;;;;-2.27;84.94;97298.55;1845897;76;21092;-85
2020/12/10 05:46:22;;;;;;;50.52;23.67;;;;;;;-2.31;84.85;97288.88;1845882;76;21153;-75
2020/12/10 05:48:48;;;;;;;;;;;;;;;-2.29;85.14;97285.49;1848545;77;21476;-88
2020/12/10 05:51:20;;;;;;;48.92;22.95;;;;;;;-2.22;85.32;97289.91;1845902;77;20236;-88
2020/12/10 05:53:46;;;;;;;56.25;22.65;;;;;;;-2.13;85.25;97286.80;1845193;77;21662;-76
2020/12/10 05:56:15;;;;;;;55.83;21.07;;;;;;;-2.13;84.74;97289.46;1846001;77;21079;-88
2020/12/10 05:58:52;;;;;;;44.67;19.87;;;;;;;-2.17;84.67;97290.09;1815418;77;21836;-88
2020/12/10 06:01:33;;;;;;;42.65;22.25;;;;;;;-2.30;84.85;97294.48;1845915;77;21023;-76
2020/12/10 06:04:00;;;;;;;54.90;21.70;;;;;;;-2.26;84.99;97289.55;1845916;77;21044;-89
2020/12/10 06:06:31;;;;;;;49.58;21.97;;;;;;;-2.19;84.96;97284.20;1845805;77;21127;-88
2020/12/10 06:09:03;;;;;;;50.17;23.57;;;;;;;-2.24;85.30;97277.38;1846035;77;21019;-77
2020/12/10 06:11:29;;;;;;;50.20;23.47;;;;;;;-2.13;84.75;97277.52;1845865;77;21156;-76
2020/12/10 06:14:06;;;;;;;55.03;22.37;;;;;;;-2.16;85.10;97277.12;1845848;77;21035;-76
2020/12/10 06:16:33;;;;;;;47.48;21.87;;;;;;;-2.17;85.28;97274.98;1845816;76;21138;-85
2020/12/10 06:19:07;;;;;;;62.05;26.00;;;;;;;-2.20;85.14;97282.58;1845857;76;20996;-76
2020/12/10 06:21:42;;;;;;;55.60;22.13;;;;;;;-2.13;85.21;97282.02;1845918;77;21540;-76
2020/12/10 06:24:32;;;;;;;59.77;25.32;;;;;;;-2.00;85.24;97292.50;1845892;77;21157;-76
2020/12/10 06:26:58;;;;;;;58.83;22.07;;;;;;;-2.09;84.85;97288.50;1845802;77;21087;-76
2020/12/10 06:29:29;;;;;;;49.33;22.30;;;;;;;-2.07;85.20;97292.55;1845787;77;21035;-87
2020/12/10 06:32:09;;;;;;;54.10;22.40;;;;;;;-2.04;84.86;97282.03;1845973;77;21618;-88
2020/12/10 06:34:42;;;;;;;52.75;24.52;;;;;;;-2.02;85.12;97270.67;1845985;77;21673;-88
2020/12/10 06:37:29;;;;;;;56.48;24.12;;;;;;;-2.03;85.14;97271.19;1846145;77;21114;-88
2020/12/10 06:40:02;;;;;;;49.50;22.95;;;;;;;-2.02;85.10;97274.14;1845919;77;21115;-86
2020/12/10 06:42:46;;;;;;;56.73;22.73;;;;;;;-2.03;85.44;97276.50;1845363;77;21143;-85
2020/12/10 06:45:41;;;;;;;50.45;21.55;;;;;;;-2.03;85.92;97271.70;1845592;77;21083;-76
2020/12/10 06:48:10;;;;;;;51.85;20.88;;;;;;;-2.17;86.36;97273.65;1845921;77;21103;-75
2020/12/10 06:50:39;;;;;;;52.40;21.40;;;;;;;-2.16;86.31;97271.80;1846010;77;21210;-88
2020/12/10 06:53:21;;;;;;;52.33;22.25;;;;;;;-2.16;86.34;97255.36;1846100;77;21150;-76
2020/12/10 06:56:03;;;;;;;44.77;20.65;;;;;;;-2.07;85.86;97258.04;1846080;77;21118;-75
2020/12/10 06:58:41;;;;;;;51.10;23.35;;;;;;;-2.16;86.12;97255.36;1846229;77;21135;-77
2020/12/10 07:01:28;;;;;;;50.15;18.92;;;;;;;-2.15;86.05;97250.34;1846197;77;23231;-75
2020/12/10 07:07:22;;;;;;;45.40;21.52;;;;;;;-2.15;86.13;97249.53;1846046;77;21116;-87
2020/12/10 07:09:58;;;;;;;41.58;19.67;;;;;;;-2.18;86.09;97253.97;1846088;77;21291;-76
2020/12/10 07:12:26;;;;;;;45.28;19.50;;;;;;;-2.15;86.11;97247.69;1846104;77;21138;-76
2020/12/10 07:15:14;;;;;;;34.07;17.23;;;;;;;-2.02;85.98;97250.77;1789170;77;21087;-88
2020/12/10 07:17:41;;;;;;;47.90;17.92;;;;;;;-1.95;85.94;97244.07;1840684;76;21516;-78
2020/12/10 07:20:07;;;;;;;43.42;20.50;;;;;;;-1.92;85.99;97243.11;1845990;76;21115;-76
2020/12/10 07:22:32;;;;;;;41.20;18.10;;;;;;;-1.86;85.79;97243.56;1815571;77;21174;-87
2020/12/10 07:24:58;;;;;;;41.80;20.27;;;;;;;-1.90;85.63;97238.89;1845981;76;20885;-86
2020/12/10 07:27:27;;;;;;;41.00;20.25;;;;;;;-1.77;85.52;97236.94;1846106;77;20932;-87
2020/12/10 07:29:53;;;;;;;53.00;24.35;;;;;;;-1.65;85.69;97240.98;1846151;77;21230;-76
2020/12/10 07:32:19;;;;;;;72.15;32.98;;;;;;;-1.53;85.59;97237.91;1815662;77;21075;-88
2020/12/10 07:34:45;;;;;;;170.92;68.50;;;;;;;-1.45;85.54;97230.97;1845991;76;20904;-88
2020/12/10 07:37:13;;;;;;;74.20;34.60;;;;;;;-1.44;84.86;97233.92;1846039;76;21031;-88
2020/12/10 07:39:39;;;;;;;206.50;84.25;;;;;;;-1.53;84.21;97232.59;1846168;76;21456;-76
2020/12/10 07:42:05;;;;;;;89.62;44.90;;;;;;;-1.50;84.64;97231.33;1846086;77;21398;-76
2020/12/10 07:44:33;;;;;;;60.55;29.63;;;;;;;-1.52;84.13;97232.08;1845850;77;21218;-87
2020/12/10 07:46:59;;;;;;;39.23;20.20;;;;;;;-1.51;84.40;97232.37;1845978;77;21103;-76
2020/12/10 07:49:32;;;;;;;50.30;22.48;;;;;;;-1.48;84.41;97224.75;1846028;77;21027;-86
2020/12/10 07:52:12;;;;;;;43.42;21.75;;;;;;;-1.44;84.46;97222.48;1846146;77;21103;-75
2020/12/10 07:54:49;;;;;;;40.03;19.62;;;;;;;-1.46;84.35;97219.20;1815442;77;21376;-76
2020/12/10 07:57:26;;;;;;;42.70;20.72;;;;;;;-1.48;84.21;97214.64;1789005;77;21162;-76
2020/12/10 07:59:59;;;;;;;43.95;20.30;;;;;;;-1.37;84.47;97215.73;1845925;77;21131;-75
2020/12/10 08:02:34;;;;;;;42.73;20.57;;;;;;;-1.32;84.46;97215.37;1845847;77;21154;-88
2020/12/10 08:05:00;;;;;;;43.95;21.23;;;;;;;-1.29;84.48;97214.91;1843384;77;21052;-76
2020/12/10 08:07:26;;;;;;;47.93;23.60;;;;;;;-1.22;84.57;97209.52;1845990;77;22068;-88
2020/12/10 08:09:51;;;;;;;55.03;26.07;;;;;;;-1.22;84.35;97209.52;1845773;77;20920;-76
2020/12/10 08:12:21;;;;;;;51.00;24.57;;;;;;;-1.26;84.28;97212.34;1846041;77;20921;-88
2020/12/10 08:14:50;;;;;;;54.50;24.63;;;;;;;-1.24;84.32;97209.75;1845609;76;21043;-76
2020/12/10 08:17:20;;;;;;;57.62;25.95;;;;;;;-1.19;84.45;97211.23;1846135;77;21106;-88
2020/12/10 08:19:55;;;;;;;43.70;18.80;;;;;;;-1.16;84.44;97208.62;1845877;77;21297;-86
2020/12/10 08:22:23;;;;;;;43.52;20.27;;;;;;;-1.16;84.33;97209.95;1845948;77;21158;-87
2020/12/10 08:24:48;;;;;;;40.25;19.87;;;;;;;-1.10;84.47;97208.26;1845949;77;21158;-76
2020/12/10 08:27:16;;;;;;;42.40;22.27;;;;;;;-1.14;84.05;97207.88;1815272;77;21233;-77
2020/12/10 08:30:07;;;;;;;38.42;18.42;;;;;;;-1.10;84.27;97213.05;1845843;76;21032;-76
2020/12/10 08:32:33;;;;;;;39.03;19.07;;;;;;;-1.07;84.30;97220.58;1845922;77;21111;-76
2020/12/10 08:35:08;;;;;;;46.63;23.10;;;;;;;-1.08;84.06;97210.16;1845824;77;20889;-76
2020/12/10 08:37:41;;;;;;;47.00;20.37;;;;;;;-1.08;84.03;97202.19;1846006;77;21578;-77
2020/12/10 08:40:07;;;;;;;43.23;20.82;;;;;;;-1.11;84.32;97207.94;1845669;77;21035;-76
2020/12/10 08:42:33;;;;;;;37.50;18.50;;;;;;;-1.12;84.40;97201.81;1846075;77;21623;-78
2020/12/10 08:44:59;;;;;;;34.05;17.77;;;;;;;-1.27;84.39;97184.14;1815420;77;21536;-84
2020/12/10 08:47:32;;;;;;;35.45;16.87;;;;;;;-1.07;84.58;97189.99;1845975;76;20881;-87
2020/12/10 08:50:28;;;;;;;50.45;27.73;;;;;;;-1.05;84.45;97183.92;1845977;77;21166;-75
2020/12/10 08:53:08;;;;;;;41.55;22.35;;;;;;;-0.97;84.33;97181.47;1815548;77;21186;-87
2020/12/10 08:55:48;;;;;;;31.60;18.80;;;;;;;-0.86;84.17;97186.00;1845964;77;21674;-76
2020/12/10 08:58:23;;;;;;;27.65;14.53;;;;;;;-0.80;83.82;97182.97;1817656;77;21253;-86
2020/12/10 09:00:48;;;;;;;34.05;19.17;;;;;;;-0.78;83.13;97170.23;1815576;77;21154;-76
2020/12/10 09:03:15;;;;;;;23.45;12.05;;;;;;;-0.59;83.56;97173.14;1845912;77;20952;-76
2020/12/10 09:05:42;;;;;;;27.58;14.30;;;;;;;-0.44;83.43;97172.67;1845823;76;21560;-76
2020/12/10 09:08:08;;;;;;;25.30;13.18;;;;;;;-0.34;82.46;97172.94;1845849;77;21206;-87
2020/12/10 09:10:34;;;;;;;31.93;20.50;;;;;;;-0.17;83.20;97172.53;1845954;77;21198;-76
2020/12/10 09:13:00;;;;;;;26.95;14.65;;;;;;;0.05;82.64;97169.27;1845903;76;21111;-76
2020/12/10 09:15:27;;;;;;;22.93;14.50;;;;;;;0.23;82.40;97170.46;1845730;76;21114;-76
2020/12/10 09:17:53;;;;;;;21.95;12.65;;;;;;;0.42;81.67;97168.45;1846048;76;21634;-83
2020/12/10 09:20:19;;;;;;;28.40;13.88;;;;;;;0.36;77.56;97171.55;1846043;77;21538;-85
2020/12/10 09:22:45;;;;;;;30.15;17.60;;;;;;;0.73;78.05;97164.55;1815316;77;22002;-76
2020/12/10 09:25:11;;;;;;;31.27;16.15;;;;;;;1.02;80.16;97163.48;1845823;77;21360;-76
2020/12/10 09:27:37;;;;;;;66.92;35.63;;;;;;;1.09;77.87;97168.16;1845825;77;20972;-87
2020/12/10 09:30:05;;;;;;;36.38;20.48;;;;;;;1.18;78.84;97163.23;1845884;77;21460;-87
2020/12/10 09:32:34;;;;;;;31.10;19.65;;;;;;;0.93;75.44;97162.25;1845904;77;21091;-75
2020/12/10 09:35:05;;;;;;;29.57;17.12;;;;;;;0.52;75.56;97151.35;1845963;76;21350;-86
2020/12/10 09:37:31;;;;;;;53.48;27.13;;;;;;;0.49;76.70;97145.95;1845938;77;21103;-75
2020/12/10 09:39:56;;;;;;;29.63;16.12;;;;;;;0.43;76.29;97144.77;1845850;77;20980;-86
2020/12/10 09:42:22;;;;;;;35.30;19.32;;;;;;;0.24;76.99;97137.44;1846004;77;20928;-86
2020/12/10 09:44:48;;;;;;;26.95;15.00;;;;;;;0.02;77.95;97127.94;1845960;76;21076;-76
2020/12/10 09:47:14;;;;;;;36.70;21.02;;;;;;;0.04;78.18;97126.36;1815464;77;21229;-77
2020/12/10 09:49:40;;;;;;;37.65;18.67;;;;;;;-0.32;78.27;97128.25;1845864;77;21027;-76
2020/12/10 09:52:07;;;;;;;42.30;20.77;;;;;;;-0.15;78.95;97129.69;1845912;76;21083;-76
2020/12/10 09:54:53;;;;;;;36.42;19.02;;;;;;;-0.18;79.12;97123.48;1845905;77;21056;-85
2020/12/10 09:57:09;;;;;;;36.70;20.12;;;;;;;-0.21;79.45;97123.95;1812042;77;21119;-85
2020/12/10 09:59:34;;;;;;;43.28;26.93;;;;;;;-0.34;79.19;97125.02;1844804;77;21198;-75
2020/12/10 10:01:59;;;;;;;52.93;26.85;;;;;;;-0.37;79.33;97122.80;1845529;76;21103;-76
2020/12/10 10:04:25;;;;;;;49.08;25.17;;;;;;;-0.37;79.59;97118.28;1846013;77;21127;-86
2020/12/10 10:06:51;;;;;;;37.60;17.32;;;;;;;-0.30;79.98;97125.63;1845892;77;20979;-86
2020/12/10 10:09:17;;;;;;;33.92;17.30;;;;;;;-0.50;79.64;97118.53;1846126;77;21202;-76
2020/12/10 10:11:44;;;;;;;44.58;19.75;;;;;;;-0.36;79.77;97120.42;1846153;77;21476;-76
2020/12/10 10:14:10;;;;;;;45.25;24.47;;;;;;;-0.24;80.11;97116.44;1815236;77;21170;-87
2020/12/10 10:16:36;;;;;;;37.73;19.92;;;;;;;-0.19;79.87;97113.88;1846106;77;21613;-86
2020/12/10 10:19:02;;;;;;;42.90;19.37;;;;;;;-0.22;80.03;97105.84;1846187;77;20999;-87
2020/12/10 10:21:28;;;;;;;39.60;19.62;;;;;;;-0.15;80.20;97102.54;1845929;77;20905;-86
2020/12/10 10:23:56;;;;;;;38.95;19.98;;;;;;;-0.08;79.82;97109.08;1846019;77;21913;-86
2020/12/10 10:26:22;;;;;;;45.88;20.85;;;;;;;-0.37;79.86;97100.98;1845682;76;21151;-85
2020/12/10 10:28:50;;;;;;;44.40;21.95;;;;;;;-0.37;80.03;97100.98;1846166;76;21010;-86
2020/12/10 10:31:16;;;;;;;39.13;20.85;;;;;;;-0.36;79.79;97091.95;1815867;77;21174;-87
2020/12/10 10:33:42;;;;;;;33.40;18.52;;;;;;;-0.26;79.99;97091.88;1845986;77;21400;-76
2020/12/10 10:36:07;;;;;;;41.73;18.37;;;;;;;-0.26;79.66;97088.69;1846036;77;21082;-76
2020/12/10 10:38:33;;;;;;;45.40;22.42;;;;;;;-0.33;79.81;97092.02;1846067;77;20925;-86
2020/12/10 10:40:59;;;;;;;46.70;24.82;;;;;;;-0.58;80.17;97090.92;1815319;77;20913;-85
2020/12/10 10:43:25;;;;;;;37.38;17.23;;;;;;;-0.51;80.58;97090.78;1846162;77;21569;-86
2020/12/10 10:45:51;;;;;;;39.33;20.97;;;;;;;-0.74;81.04;97084.44;1846047;77;20921;-86
2020/12/10 10:48:17;;;;;;;37.00;17.70;;;;;;;-0.68;81.04;97083.52;1846084;77;21929;-76
2020/12/10 10:50:43;;;;;;;43.15;22.35;;;;;;;-0.76;81.25;97085.72;1845987;77;21320;-76
2020/12/10 10:53:09;;;;;;;45.52;24.32;;;;;;;-0.78;81.47;97077.13;1846063;77;21102;-76
2020/12/10 10:55:34;;;;;;;55.65;32.80;;;;;;;-0.80;81.66;97081.87;1845968;76;20979;-86
2020/12/10 10:58:00;;;;;;;40.70;22.77;;;;;;;-0.74;81.61;97075.64;1846130;77;21937;-86
2020/12/10 11:00:28;;;;;;;39.65;20.48;;;;;;;-0.78;81.90;97075.80;1846011;76;21235;-76
2020/12/10 11:02:54;;;;;;;41.05;23.55;;;;;;;-0.79;81.78;97076.84;1845875;77;21138;-76
2020/12/10 11:05:20;;;;;;;42.30;19.25;;;;;;;-0.81;82.03;97071.75;1846122;77;20964;-76
2020/12/10 11:07:46;;;;;;;47.53;22.32;;;;;;;-0.92;82.00;97067.24;1846192;77;21343;-76
2020/12/10 11:10:12;;;;;;;43.92;21.05;;;;;;;-0.78;82.15;97072.61;1846138;77;20905;-76
2020/12/10 11:12:39;;;;;;;38.80;19.62;;;;;;;-0.68;82.05;97072.07;1846087;76;21394;-76
2020/12/10 11:15:05;;;;;;;39.00;19.30;;;;;;;-0.59;81.81;97075.48;1845936;77;21597;-87
2020/12/10 11:17:31;;;;;;;41.88;21.57;;;;;;;-0.63;81.50;97065.52;1846028;77;20929;-76
2020/12/10 11:19:56;;;;;;;56.00;24.52;;;;;;;-0.56;81.47;97067.55;1845922;77;21519;-77
2020/12/10 11:22:22;;;;;;;41.20;20.10;;;;;;;-0.43;81.72;97065.96;1846150;77;20973;-86
2020/12/10 11:24:48;;;;;;;38.45;19.25;;;;;;;-0.39;81.12;97064.47;1845969;77;21189;-86
2020/12/10 11:27:14;;;;;;;43.02;21.95;;;;;;;-0.40;81.15;97064.19;1845920;77;21595;-76
2020/12/10 11:29:40;;;;;;;52.62;26.17;;;;;;;-0.36;81.05;97059.19;1845996;77;20954;-86
2020/12/10 11:32:06;;;;;;;40.70;21.77;;;;;;;-0.37;81.00;97058.91;1846007;76;20976;-76